ADDS TAF Data INFO
IDs: Format: Raw Decoded Include METARs

Data at: 0345 UTC 23 Nov 2017

KTEB 230251Z 32011G21KT 10SM CLR 03/M06 A3007 RMK AO2 SLP182 T00281061 51016

KTEB 230239Z 2303/2324 32010G18KT P6SM FEW050
  FM230600 32006KT P6SM SKC
  FM231900 29006KT P6SM FEW250


KEWR 230251Z 32018G22KT 10SM FEW038 03/M06 A3009 RMK AO2 PK WND 33026/0207 SLP189 T00281061 51017

KEWR 230239Z 2303/2406 32014G24KT P6SM FEW045
  FM230600 32009KT P6SM SKC
  FM231800 29007KT P6SM FEW250


KMMU 230335Z AUTO 33004KT 10SM SCT038 01/M06 A3010 RMK AO2

No TAF found for KMMU

KABE 230251Z 31008KT 10SM OVC040 02/M06 A3012 RMK AO2 SLP203 T00221061 53010

KABE 222321Z 2300/2324 32010G18KT P6SM OVC045
  FM230400 32008KT P6SM SCT045
  FM230700 30006KT P6SM SKC
  FM232100 27006KT P6SM SKC


KSWF 230345Z 30012KT 10SM BKN040 01/M05 A3007

KSWF 230239Z 2303/2406 32012G20KT P6SM BKN050
  FM230400 31010KT P6SM SCT050
  FM230700 30007KT P6SM SKC AMD NOT SKED